sensor_id;sensor_type;location;lat;lon;timestamp;pressure;altitude;pressure_sealevel;temperature;humidity
32081;BME280;18593;51.426;7.030;2023-06-04T00:00:28;101027.41;;;15.00;42.84
32081;BME280;18593;51.426;7.030;2023-06-04T00:02:55;101031.59;;;14.96;43.10
32081;BME280;18593;51.426;7.030;2023-06-04T00:05:22;101027.47;;;14.93;43.03
32081;BME280;18593;51.426;7.030;2023-06-04T00:07:51;101023.63;;;14.89;42.98
32081;BME280;18593;51.426;7.030;2023-06-04T00:10:18;101030.25;;;14.86;42.91
32081;BME280;18593;51.426;7.030;2023-06-04T00:12:45;101024.88;;;14.86;42.78
32081;BME280;18593;51.426;7.030;2023-06-04T00:15:14;101023.84;;;14.87;42.32
32081;BME280;18593;51.426;7.030;2023-06-04T00:17:42;101029.22;;;14.87;42.49
32081;BME280;18593;51.426;7.030;2023-06-04T00:20:10;101020.56;;;14.85;42.58
32081;BME280;18593;51.426;7.030;2023-06-04T00:22:38;101011.91;;;14.83;43.06
32081;BME280;18593;51.426;7.030;2023-06-04T00:25:08;101021.00;;;14.82;42.75
32081;BME280;18593;51.426;7.030;2023-06-04T00:27:35;101018.56;;;14.81;43.15
32081;BME280;18593;51.426;7.030;2023-06-04T00:30:04;101016.94;;;14.80;43.25
32081;BME280;18593;51.426;7.030;2023-06-04T00:32:33;101019.63;;;14.80;43.16
32081;BME280;18593;51.426;7.030;2023-06-04T00:35:00;101029.75;;;14.78;43.01
32081;BME280;18593;51.426;7.030;2023-06-04T00:37:28;101029.16;;;14.76;43.35
32081;BME280;18593;51.426;7.030;2023-06-04T00:39:55;101027.72;;;14.73;43.28
32081;BME280;18593;51.426;7.030;2023-06-04T00:42:23;101020.34;;;14.68;43.29
32081;BME280;18593;51.426;7.030;2023-06-04T00:44:50;101022.00;;;14.70;43.22
32081;BME280;18593;51.426;7.030;2023-06-04T00:47:19;101034.81;;;14.67;43.45
32081;BME280;18593;51.426;7.030;2023-06-04T00:49:49;101032.81;;;14.63;43.50
32081;BME280;18593;51.426;7.030;2023-06-04T00:52:17;101031.41;;;14.60;44.00
32081;BME280;18593;51.426;7.030;2023-06-04T00:54:45;101031.03;;;14.57;43.98
32081;BME280;18593;51.426;7.030;2023-06-04T00:57:12;101033.13;;;14.55;43.13
32081;BME280;18593;51.426;7.030;2023-06-04T00:59:40;101031.69;;;14.52;42.23
32081;BME280;18593;51.426;7.030;2023-06-04T01:02:11;101033.13;;;14.55;42.31
32081;BME280;18593;51.426;7.030;2023-06-04T01:04:49;101027.09;;;14.59;42.02
32081;BME280;18593;51.426;7.030;2023-06-04T01:07:18;101029.53;;;14.61;42.12
32081;BME280;18593;51.426;7.030;2023-06-04T01:09:46;101034.44;;;14.64;42.25
32081;BME280;18593;51.426;7.030;2023-06-04T01:12:14;101029.44;;;14.67;42.34
32081;BME280;18593;51.426;7.030;2023-06-04T01:14:42;101033.78;;;14.68;42.58
32081;BME280;18593;51.426;7.030;2023-06-04T01:17:16;101026.09;;;14.72;42.80
32081;BME280;18593;51.426;7.030;2023-06-04T01:20:16;101029.84;;;14.71;42.99
32081;BME280;18593;51.426;7.030;2023-06-04T01:23:02;101025.28;;;14.72;43.14
32081;BME280;18593;51.426;7.030;2023-06-04T01:25:34;101034.38;;;14.71;43.22
32081;BME280;18593;51.426;7.030;2023-06-04T01:28:05;101034.63;;;14.69;43.40
32081;BME280;18593;51.426;7.030;2023-06-04T01:30:35;101040.19;;;14.67;43.74
32081;BME280;18593;51.426;7.030;2023-06-04T01:33:10;101043.94;;;14.66;43.45
32081;BME280;18593;51.426;7.030;2023-06-04T01:35:39;101039.81;;;14.64;43.23
32081;BME280;18593;51.426;7.030;2023-06-04T01:38:07;101037.97;;;14.64;44.24
32081;BME280;18593;51.426;7.030;2023-06-04T01:40:35;101040.84;;;14.63;43.99
32081;BME280;18593;51.426;7.030;2023-06-04T01:43:03;101036.53;;;14.62;44.02
32081;BME280;18593;51.426;7.030;2023-06-04T01:45:30;101037.34;;;14.62;44.14
32081;BME280;18593;51.426;7.030;2023-06-04T01:47:57;101040.84;;;14.63;44.31
32081;BME280;18593;51.426;7.030;2023-06-04T01:50:25;101030.59;;;14.60;44.34
32081;BME280;18593;51.426;7.030;2023-06-04T01:52:54;101022.53;;;14.60;44.35
32081;BME280;18593;51.426;7.030;2023-06-04T01:55:21;101033.28;;;14.60;44.41
32081;BME280;18593;51.426;7.030;2023-06-04T01:57:51;101024.16;;;14.61;44.29
32081;BME280;18593;51.426;7.030;2023-06-04T02:00:18;101022.31;;;14.61;44.56
32081;BME280;18593;51.426;7.030;2023-06-04T02:02:46;101022.53;;;14.60;44.92
32081;BME280;18593;51.426;7.030;2023-06-04T02:05:15;101022.53;;;14.60;44.61
32081;BME280;18593;51.426;7.030;2023-06-04T02:07:45;101023.34;;;14.60;44.58
32081;BME280;18593;51.426;7.030;2023-06-04T02:10:15;101022.53;;;14.60;45.21
32081;BME280;18593;51.426;7.030;2023-06-04T02:12:55;101027.75;;;14.55;45.70
32081;BME280;18593;51.426;7.030;2023-06-04T02:15:23;101037.28;;;14.51;46.13
32081;BME280;18593;51.426;7.030;2023-06-04T02:17:54;101035.47;;;14.45;46.22
32081;BME280;18593;51.426;7.030;2023-06-04T02:20:24;101037.97;;;14.39;46.22
32081;BME280;18593;51.426;7.030;2023-06-04T02:22:53;101047.97;;;14.32;46.31
32081;BME280;18593;51.426;7.030;2023-06-04T02:25:22;101037.91;;;14.28;46.18
32081;BME280;18593;51.426;7.030;2023-06-04T02:27:49;101036.69;;;14.24;46.30
32081;BME280;18593;51.426;7.030;2023-06-04T02:30:16;101034.91;;;14.17;46.64
32081;BME280;18593;51.426;7.030;2023-06-04T02:32:43;101040.69;;;14.14;46.84
32081;BME280;18593;51.426;7.030;2023-06-04T02:35:11;101032.72;;;14.08;47.06
32081;BME280;18593;51.426;7.030;2023-06-04T02:37:38;101035.84;;;14.05;46.99
32081;BME280;18593;51.426;7.030;2023-06-04T02:40:07;101042.09;;;13.99;47.05
32081;BME280;18593;51.426;7.030;2023-06-04T02:42:36;101043.56;;;13.95;47.41
32081;BME280;18593;51.426;7.030;2023-06-04T02:45:04;101043.19;;;13.91;47.65
32081;BME280;18593;51.426;7.030;2023-06-04T02:47:32;101048.41;;;13.86;47.65
32081;BME280;18593;51.426;7.030;2023-06-04T02:49:59;101042.66;;;13.82;47.73
32081;BME280;18593;51.426;7.030;2023-06-04T02:52:28;101043.53;;;13.76;47.80
32081;BME280;18593;51.426;7.030;2023-06-04T02:54:56;101043.94;;;13.73;47.92
32081;BME280;18593;51.426;7.030;2023-06-04T02:57:23;101039.47;;;13.67;48.08
32081;BME280;18593;51.426;7.030;2023-06-04T02:59:52;101047.13;;;13.63;48.35
32081;BME280;18593;51.426;7.030;2023-06-04T03:02:21;101047.75;;;13.59;48.47
32081;BME280;18593;51.426;7.030;2023-06-04T03:04:48;101045.72;;;13.54;48.77
32081;BME280;18593;51.426;7.030;2023-06-04T03:07:16;101052.78;;;13.49;48.68
32081;BME280;18593;51.426;7.030;2023-06-04T03:09:46;101054.84;;;13.47;48.77
32081;BME280;18593;51.426;7.030;2023-06-04T03:12:13;101039.44;;;13.42;48.96
32081;BME280;18593;51.426;7.030;2023-06-04T03:14:41;101053.47;;;13.37;49.09
32081;BME280;18593;51.426;7.030;2023-06-04T03:17:10;101046.69;;;13.35;49.26
32081;BME280;18593;51.426;7.030;2023-06-04T03:19:37;101050.00;;;13.30;49.20
32081;BME280;18593;51.426;7.030;2023-06-04T03:22:07;101050.41;;;13.27;49.40
32081;BME280;18593;51.426;7.030;2023-06-04T03:24:39;101056.22;;;13.24;49.31
32081;BME280;18593;51.426;7.030;2023-06-04T03:27:10;101051.91;;;13.23;49.47
32081;BME280;18593;51.426;7.030;2023-06-04T03:29:40;101053.09;;;13.21;49.70
32081;BME280;18593;51.426;7.030;2023-06-04T03:32:09;101050.03;;;13.17;49.83
32081;BME280;18593;51.426;7.030;2023-06-04T03:34:38;101051.28;;;13.14;50.02
32081;BME280;18593;51.426;7.030;2023-06-04T03:37:06;101057.06;;;13.11;50.09
32081;BME280;18593;51.426;7.030;2023-06-04T03:39:33;101050.28;;;13.09;50.19
32081;BME280;18593;51.426;7.030;2023-06-04T03:42:04;101051.34;;;13.08;50.47
32081;BME280;18593;51.426;7.030;2023-06-04T03:44:32;101058.97;;;13.04;50.24
32081;BME280;18593;51.426;7.030;2023-06-04T03:46:59;101054.84;;;13.02;50.48
32081;BME280;18593;51.426;7.030;2023-06-04T03:49:28;101062.06;;;13.01;50.83
32081;BME280;18593;51.426;7.030;2023-06-04T03:51:56;101057.97;;;12.99;50.90
32081;BME280;18593;51.426;7.030;2023-06-04T03:54:24;101055.69;;;12.96;50.98
32081;BME280;18593;51.426;7.030;2023-06-04T03:56:51;101065.38;;;12.97;50.90
32081;BME280;18593;51.426;7.030;2023-06-04T03:59:18;101061.88;;;12.96;51.73
32081;BME280;18593;51.426;7.030;2023-06-04T04:01:46;101058.38;;;12.96;51.56
32081;BME280;18593;51.426;7.030;2023-06-04T04:04:14;101054.88;;;12.95;51.50
32081;BME280;18593;51.426;7.030;2023-06-04T04:06:43;101050.34;;;12.96;51.62
32081;BME280;18593;51.426;7.030;2023-06-04T04:09:11;101055.69;;;12.96;51.47
32081;BME280;18593;51.426;7.030;2023-06-04T04:11:39;101048.47;;;12.96;52.18
32081;BME280;18593;51.426;7.030;2023-06-04T04:14:06;101058.78;;;12.99;52.31
32081;BME280;18593;51.426;7.030;2023-06-04T04:16:33;101056.09;;;12.99;52.52
32081;BME280;18593;51.426;7.030;2023-06-04T04:19:01;101057.97;;;12.99;52.51
32081;BME280;18593;51.426;7.030;2023-06-04T04:21:28;101054.25;;;13.00;52.60
32081;BME280;18593;51.426;7.030;2023-06-04T04:23:57;101063.50;;;13.04;52.37
32081;BME280;18593;51.426;7.030;2023-06-04T04:26:24;101058.53;;;13.07;52.66
32081;BME280;18593;51.426;7.030;2023-06-04T04:28:54;101057.06;;;13.11;52.89
32081;BME280;18593;51.426;7.030;2023-06-04T04:31:26;101051.88;;;13.17;52.77
32081;BME280;18593;51.426;7.030;2023-06-04T04:33:55;101054.94;;;13.27;52.57
32081;BME280;18593;51.426;7.030;2023-06-04T04:36:23;101055.94;;;13.39;52.95
32081;BME280;18593;51.426;7.030;2023-06-04T04:38:50;101052.34;;;13.52;52.50
32081;BME280;18593;51.426;7.030;2023-06-04T04:41:22;101050.38;;;13.65;52.05
32081;BME280;18593;51.426;7.030;2023-06-04T04:43:53;101057.91;;;13.82;51.56
32081;BME280;18593;51.426;7.030;2023-06-04T04:46:25;101053.63;;;13.99;51.88
32081;BME280;18593;51.426;7.030;2023-06-04T04:48:52;101055.56;;;14.17;51.51
32081;BME280;18593;51.426;7.030;2023-06-04T04:51:20;101050.06;;;14.30;51.44
32081;BME280;18593;51.426;7.030;2023-06-04T04:53:48;101052.16;;;14.47;51.37
32081;BME280;18593;51.426;7.030;2023-06-04T04:56:16;101050.78;;;14.62;50.88
32081;BME280;18593;51.426;7.030;2023-06-04T04:58:49;101050.19;;;14.79;50.11
32081;BME280;18593;51.426;7.030;2023-06-04T05:01:16;101050.16;;;14.97;50.14
32081;BME280;18593;51.426;7.030;2023-06-04T05:03:44;101057.63;;;15.13;49.14
32081;BME280;18593;51.426;7.030;2023-06-04T05:06:14;101052.66;;;15.29;49.13
32081;BME280;18593;51.426;7.030;2023-06-04T05:08:41;101058.66;;;15.42;49.13
32081;BME280;18593;51.426;7.030;2023-06-04T05:11:09;101056.81;;;15.55;48.17
32081;BME280;18593;51.426;7.030;2023-06-04T05:13:37;101054.78;;;15.68;48.13
32081;BME280;18593;51.426;7.030;2023-06-04T05:16:06;101061.84;;;15.81;47.72
32081;BME280;18593;51.426;7.030;2023-06-04T05:18:37;101054.03;;;15.91;48.49
32081;BME280;18593;51.426;7.030;2023-06-04T05:21:07;101059.41;;;16.03;47.80
32081;BME280;18593;51.426;7.030;2023-06-04T05:23:39;101055.69;;;16.16;46.68
32081;BME280;18593;51.426;7.030;2023-06-04T05:26:08;101048.91;;;16.25;45.89
32081;BME280;18593;51.426;7.030;2023-06-04T05:28:35;101046.44;;;16.35;46.14
32081;BME280;18593;51.426;7.030;2023-06-04T05:31:06;101060.69;;;16.47;46.15
32081;BME280;18593;51.426;7.030;2023-06-04T05:33:35;101055.31;;;16.59;46.06
32081;BME280;18593;51.426;7.030;2023-06-04T05:36:07;101044.75;;;16.69;45.25
32081;BME280;18593;51.426;7.030;2023-06-04T05:38:40;101048.97;;;16.77;44.38
32081;BME280;18593;51.426;7.030;2023-06-04T05:41:11;101056.69;;;16.85;44.45
32081;BME280;18593;51.426;7.030;2023-06-04T05:43:39;101053.63;;;16.93;44.50
32081;BME280;18593;51.426;7.030;2023-06-04T05:46:09;101054.13;;;17.07;44.21
32081;BME280;18593;51.426;7.030;2023-06-04T05:48:37;101057.03;;;17.17;44.00
32081;BME280;18593;51.426;7.030;2023-06-04T05:51:05;101067.44;;;17.25;43.76
32081;BME280;18593;51.426;7.030;2023-06-04T05:53:32;101060.84;;;17.33;42.51
32081;BME280;18593;51.426;7.030;2023-06-04T05:56:00;101068.53;;;17.41;43.10
32081;BME280;18593;51.426;7.030;2023-06-04T05:58:27;101064.91;;;17.47;43.75
32081;BME280;18593;51.426;7.030;2023-06-04T06:00:54;101063.66;;;17.55;43.19
32081;BME280;18593;51.426;7.030;2023-06-04T06:03:23;101067.59;;;17.64;43.21
32081;BME280;18593;51.426;7.030;2023-06-04T06:05:50;101076.16;;;17.73;43.33
32081;BME280;18593;51.426;7.030;2023-06-04T06:08:18;101080.09;;;17.82;42.95
32081;BME280;18593;51.426;7.030;2023-06-04T06:10:46;101072.63;;;17.89;42.40
32081;BME280;18593;51.426;7.030;2023-06-04T06:13:13;101067.41;;;17.99;42.29
32081;BME280;18593;51.426;7.030;2023-06-04T06:15:48;101075.66;;;18.10;42.44
32081;BME280;18593;51.426;7.030;2023-06-04T06:18:16;101073.38;;;18.18;40.94
32081;BME280;18593;51.426;7.030;2023-06-04T06:20:44;101074.03;;;18.25;41.48
32081;BME280;18593;51.426;7.030;2023-06-04T06:23:12;101072.78;;;18.33;41.05
32081;BME280;18593;51.426;7.030;2023-06-04T06:25:43;101079.88;;;18.39;40.31
32081;BME280;18593;51.426;7.030;2023-06-04T06:28:17;101085.13;;;18.46;40.32
32081;BME280;18593;51.426;7.030;2023-06-04T06:30:46;101082.25;;;18.52;40.24
32081;BME280;18593;51.426;7.030;2023-06-04T06:33:14;101083.94;;;18.59;40.17
32081;BME280;18593;51.426;7.030;2023-06-04T06:35:43;101081.91;;;18.66;40.54
32081;BME280;18593;51.426;7.030;2023-06-04T06:38:12;101082.81;;;18.71;39.46
32081;BME280;18593;51.426;7.030;2023-06-04T06:40:40;101084.50;;;18.77;40.27
32081;BME280;18593;51.426;7.030;2023-06-04T06:43:07;101081.63;;;18.84;39.47
32081;BME280;18593;51.426;7.030;2023-06-04T06:45:35;101087.91;;;18.90;39.10
32081;BME280;18593;51.426;7.030;2023-06-04T06:48:03;101085.00;;;18.96;39.24
32081;BME280;18593;51.426;7.030;2023-06-04T06:50:31;101084.56;;;19.04;39.06
32081;BME280;18593;51.426;7.030;2023-06-04T06:53:00;101080.59;;;19.12;38.70
32081;BME280;18593;51.426;7.030;2023-06-04T06:55:27;101080.38;;;19.14;37.38
32081;BME280;18593;51.426;7.030;2023-06-04T06:57:55;101089.56;;;19.18;37.99
32081;BME280;18593;51.426;7.030;2023-06-04T07:00:22;101087.50;;;19.25;37.86
32081;BME280;18593;51.426;7.030;2023-06-04T07:02:49;101084.88;;;19.30;38.04
32081;BME280;18593;51.426;7.030;2023-06-04T07:05:17;101087.13;;;19.38;37.97
32081;BME280;18593;51.426;7.030;2023-06-04T07:07:44;101082.91;;;19.47;37.69
32081;BME280;18593;51.426;7.030;2023-06-04T07:10:13;101091.59;;;19.54;37.32
32081;BME280;18593;51.426;7.030;2023-06-04T07:12:41;101087.91;;;19.61;36.84
32081;BME280;18593;51.426;7.030;2023-06-04T07:15:08;101082.53;;;19.66;36.32
32081;BME280;18593;51.426;7.030;2023-06-04T07:17:36;101087.19;;;19.70;37.03
32081;BME280;18593;51.426;7.030;2023-06-04T07:20:05;101089.94;;;19.75;36.65
32081;BME280;18593;51.426;7.030;2023-06-04T07:22:34;101087.28;;;19.80;36.62
32081;BME280;18593;51.426;7.030;2023-06-04T07:25:02;101086.00;;;19.88;35.64
32081;BME280;18593;51.426;7.030;2023-06-04T07:27:31;101092.53;;;19.92;36.08
32081;BME280;18593;51.426;7.030;2023-06-04T07:29:58;101098.22;;;19.96;34.67
32081;BME280;18593;51.426;7.030;2023-06-04T07:32:26;101091.81;;;20.02;35.15
32081;BME280;18593;51.426;7.030;2023-06-04T07:34:53;101101.84;;;20.06;35.05
32081;BME280;18593;51.426;7.030;2023-06-04T07:37:20;101095.91;;;20.10;33.91
32081;BME280;18593;51.426;7.030;2023-06-04T07:39:48;101086.19;;;20.14;34.09
32081;BME280;18593;51.426;7.030;2023-06-04T07:42:15;101092.22;;;20.21;34.14
32081;BME280;18593;51.426;7.030;2023-06-04T07:44:43;101100.38;;;20.26;34.58
32081;BME280;18593;51.426;7.030;2023-06-04T07:47:11;101101.47;;;20.30;33.56
32081;BME280;18593;51.426;7.030;2023-06-04T07:49:38;101095.22;;;20.29;32.02
32081;BME280;18593;51.426;7.030;2023-06-04T07:52:06;101098.25;;;20.33;32.69
32081;BME280;18593;51.426;7.030;2023-06-04T07:54:34;101101.00;;;20.38;34.15
32081;BME280;18593;51.426;7.030;2023-06-04T07:57:01;101098.06;;;20.45;32.73
32081;BME280;18593;51.426;7.030;2023-06-04T07:59:28;101094.06;;;20.52;32.57
32081;BME280;18593;51.426;7.030;2023-06-04T08:01:57;101088.69;;;20.57;31.85
32081;BME280;18593;51.426;7.030;2023-06-04T08:04:25;101094.91;;;20.58;32.62
32081;BME280;18593;51.426;7.030;2023-06-04T08:07:00;101094.94;;;20.63;32.09
32081;BME280;18593;51.426;7.030;2023-06-04T08:09:35;101086.81;;;20.63;31.65
32081;BME280;18593;51.426;7.030;2023-06-04T08:12:02;101094.72;;;20.70;34.59
32081;BME280;18593;51.426;7.030;2023-06-04T08:14:29;101095.28;;;20.77;33.53
32081;BME280;18593;51.426;7.030;2023-06-04T08:16:59;101092.31;;;20.78;32.78
32081;BME280;18593;51.426;7.030;2023-06-04T08:19:26;101086.91;;;20.83;32.95
32081;BME280;18593;51.426;7.030;2023-06-04T08:21:53;101087.75;;;20.84;31.70
32081;BME280;18593;51.426;7.030;2023-06-04T08:24:21;101090.44;;;20.84;32.44
32081;BME280;18593;51.426;7.030;2023-06-04T08:26:48;101089.38;;;20.85;32.96
32081;BME280;18593;51.426;7.030;2023-06-04T08:29:17;101091.28;;;20.90;32.59
32081;BME280;18593;51.426;7.030;2023-06-04T08:31:44;101101.34;;;20.94;32.78
32081;BME280;18593;51.426;7.030;2023-06-04T08:34:13;101097.00;;;20.98;32.62
32081;BME280;18593;51.426;7.030;2023-06-04T08:36:40;101097.84;;;21.04;33.89
32081;BME280;18593;51.426;7.030;2023-06-04T08:39:08;101098.69;;;21.09;32.63
32081;BME280;18593;51.426;7.030;2023-06-04T08:41:43;101098.44;;;21.16;34.93
32081;BME280;18593;51.426;7.030;2023-06-04T08:44:11;101086.75;;;21.16;32.21
32081;BME280;18593;51.426;7.030;2023-06-04T08:46:39;101096.50;;;21.12;31.93
32081;BME280;18593;51.426;7.030;2023-06-04T08:49:08;101092.19;;;21.16;33.06
32081;BME280;18593;51.426;7.030;2023-06-04T08:51:39;101096.00;;;21.25;33.34
32081;BME280;18593;51.426;7.030;2023-06-04T08:54:07;101096.31;;;21.28;32.56
32081;BME280;18593;51.426;7.030;2023-06-04T08:56:36;101090.88;;;21.28;32.22
32081;BME280;18593;51.426;7.030;2023-06-04T08:59:05;101094.41;;;21.29;31.20
32081;BME280;18593;51.426;7.030;2023-06-04T09:01:34;101087.59;;;21.26;31.31
32081;BME280;18593;51.426;7.030;2023-06-04T09:04:06;101090.88;;;21.28;30.66
32081;BME280;18593;51.426;7.030;2023-06-04T09:06:38;101097.13;;;21.29;31.81
32081;BME280;18593;51.426;7.030;2023-06-04T09:09:31;101095.53;;;21.33;32.81
32081;BME280;18593;51.426;7.030;2023-06-04T09:12:19;101091.44;;;21.30;30.95
32081;BME280;18593;51.426;7.030;2023-06-04T09:14:48;101092.22;;;21.26;31.44
32081;BME280;18593;51.426;7.030;2023-06-04T09:17:21;101089.22;;;21.22;30.03
32081;BME280;18593;51.426;7.030;2023-06-04T09:19:51;101100.84;;;21.13;29.75
32081;BME280;18593;51.426;7.030;2023-06-04T09:22:19;101102.50;;;21.08;30.09
32081;BME280;18593;51.426;7.030;2023-06-04T09:24:47;101095.13;;;21.04;30.19
32081;BME280;18593;51.426;7.030;2023-06-04T09:27:17;101095.38;;;21.02;30.47
32081;BME280;18593;51.426;7.030;2023-06-04T09:29:51;101107.34;;;21.06;33.60
32081;BME280;18593;51.426;7.030;2023-06-04T09:32:22;101096.50;;;21.06;30.66
32081;BME280;18593;51.426;7.030;2023-06-04T09:34:50;101090.25;;;21.06;30.63
32081;BME280;18593;51.426;7.030;2023-06-04T09:37:20;101096.78;;;21.10;31.02
32081;BME280;18593;51.426;7.030;2023-06-04T09:39:53;101091.63;;;21.08;30.47
32081;BME280;18593;51.426;7.030;2023-06-04T09:42:21;101093.78;;;21.12;32.59
32081;BME280;18593;51.426;7.030;2023-06-04T09:44:48;101095.72;;;21.16;31.25
32081;BME280;18593;51.426;7.030;2023-06-04T09:47:16;101098.16;;;21.18;29.83
32081;BME280;18593;51.426;7.030;2023-06-04T09:49:44;101090.00;;;21.18;29.72
32081;BME280;18593;51.426;7.030;2023-06-04T09:52:12;101095.47;;;21.23;29.94
32081;BME280;18593;51.426;7.030;2023-06-04T09:54:41;101105.25;;;21.29;29.14
32081;BME280;18593;51.426;7.030;2023-06-04T09:57:15;101097.94;;;21.29;27.73
32081;BME280;18593;51.426;7.030;2023-06-04T09:59:44;101093.31;;;21.30;27.30
32081;BME280;18593;51.426;7.030;2023-06-04T10:02:13;101091.16;;;21.32;27.91
32081;BME280;18593;51.426;7.030;2023-06-04T10:04:41;101096.34;;;21.33;29.64
32081;BME280;18593;51.426;7.030;2023-06-04T10:07:10;101097.41;;;21.32;27.76
32081;BME280;18593;51.426;7.030;2023-06-04T10:09:41;101097.16;;;21.34;28.19
32081;BME280;18593;51.426;7.030;2023-06-04T10:12:14;101090.66;;;21.35;27.48
32081;BME280;18593;51.426;7.030;2023-06-04T10:14:47;101089.56;;;21.36;26.72
32081;BME280;18593;51.426;7.030;2023-06-04T10:17:17;101083.31;;;21.30;26.97
32081;BME280;18593;51.426;7.030;2023-06-04T10:19:52;101091.16;;;21.32;26.85
32081;BME280;18593;51.426;7.030;2023-06-04T10:22:21;101084.38;;;21.29;27.25
32081;BME280;18593;51.426;7.030;2023-06-04T10:24:50;101090.66;;;21.35;29.08
32081;BME280;18593;51.426;7.030;2023-06-04T10:27:18;101095.56;;;21.38;27.61
32081;BME280;18593;51.426;7.030;2023-06-04T10:29:46;101089.03;;;21.34;27.40
32081;BME280;18593;51.426;7.030;2023-06-04T10:32:13;101085.75;;;21.32;27.38
32081;BME280;18593;51.426;7.030;2023-06-04T10:34:41;101081.41;;;21.31;27.61
32081;BME280;18593;51.426;7.030;2023-06-04T10:37:19;101085.50;;;21.39;28.24
32081;BME280;18593;51.426;7.030;2023-06-04T10:39:52;101095.00;;;21.41;28.38
32081;BME280;18593;51.426;7.030;2023-06-04T10:42:20;101091.47;;;21.41;27.90
32081;BME280;18593;51.426;7.030;2023-06-04T10:44:49;101080.63;;;21.46;27.87
32081;BME280;18593;51.426;7.030;2023-06-04T10:47:21;101095.56;;;21.48;27.89
32081;BME280;18593;51.426;7.030;2023-06-04T10:49:50;101083.91;;;21.48;27.40
32081;BME280;18593;51.426;7.030;2023-06-04T10:52:18;101077.09;;;21.50;28.17
32081;BME280;18593;51.426;7.030;2023-06-04T10:54:46;101073.31;;;21.51;27.80
32081;BME280;18593;51.426;7.030;2023-06-04T10:57:17;101084.16;;;21.62;29.55
32081;BME280;18593;51.426;7.030;2023-06-04T10:59:54;101083.09;;;21.63;28.19
32081;BME280;18593;51.426;7.030;2023-06-04T11:02:21;101074.41;;;21.60;27.78
32081;BME280;18593;51.426;7.030;2023-06-04T11:04:59;101077.69;;;21.63;28.96
32081;BME280;18593;51.426;7.030;2023-06-04T11:07:39;101073.06;;;21.68;29.17
32081;BME280;18593;51.426;7.030;2023-06-04T11:10:08;101074.97;;;21.73;28.61
32081;BME280;18593;51.426;7.030;2023-06-04T11:12:43;101064.91;;;21.73;27.77
32081;BME280;18593;51.426;7.030;2023-06-04T11:15:12;101066.00;;;21.72;27.30
32081;BME280;18593;51.426;7.030;2023-06-04T11:17:50;101067.06;;;21.71;28.04
32081;BME280;18593;51.426;7.030;2023-06-04T11:20:18;101060.03;;;21.70;28.11
32081;BME280;18593;51.426;7.030;2023-06-04T11:22:52;101064.63;;;21.70;28.58
32081;BME280;18593;51.426;7.030;2023-06-04T11:25:19;101061.38;;;21.68;27.60
32081;BME280;18593;51.426;7.030;2023-06-04T11:27:51;101055.16;;;21.67;27.85
32081;BME280;18593;51.426;7.030;2023-06-04T11:30:18;101069.78;;;21.66;27.63
32081;BME280;18593;51.426;7.030;2023-06-04T11:32:46;101060.81;;;21.60;27.77
32081;BME280;18593;51.426;7.030;2023-06-04T11:35:13;101061.09;;;21.59;28.14
32081;BME280;18593;51.426;7.030;2023-06-04T11:37:41;101059.19;;;21.59;29.52
32081;BME280;18593;51.426;7.030;2023-06-04T11:40:19;101048.06;;;21.66;29.49
32081;BME280;18593;51.426;7.030;2023-06-04T11:42:48;101066.25;;;21.66;27.27
32081;BME280;18593;51.426;7.030;2023-06-04T11:45:17;101059.19;;;21.59;25.90
32081;BME280;18593;51.426;7.030;2023-06-04T11:47:45;101066.25;;;21.55;25.91
32081;BME280;18593;51.426;7.030;2023-06-04T11:50:13;101063.53;;;21.55;26.34
32081;BME280;18593;51.426;7.030;2023-06-04T11:52:41;101059.72;;;21.56;26.27
32081;BME280;18593;51.426;7.030;2023-06-04T11:55:09;101048.06;;;21.56;25.97
32081;BME280;18593;51.426;7.030;2023-06-04T11:57:37;101045.34;;;21.56;27.06
32081;BME280;18593;51.426;7.030;2023-06-04T12:00:08;101052.69;;;21.55;26.23
32081;BME280;18593;51.426;7.030;2023-06-04T12:02:36;101048.06;;;21.56;27.91
32081;BME280;18593;51.426;7.030;2023-06-04T12:05:15;101042.38;;;21.57;28.23
32081;BME280;18593;51.426;7.030;2023-06-04T12:07:45;101033.97;;;21.54;27.81
32081;BME280;18593;51.426;7.030;2023-06-04T12:10:14;101035.84;;;21.53;27.88
32081;BME280;18593;51.426;7.030;2023-06-04T12:12:41;101041.28;;;21.53;27.87
32081;BME280;18593;51.426;7.030;2023-06-04T12:15:10;101039.38;;;21.54;27.95
32081;BME280;18593;51.426;7.030;2023-06-04T12:17:48;101035.31;;;21.56;27.29
32081;BME280;18593;51.426;7.030;2023-06-04T12:20:15;101038.00;;;21.51;27.13
32081;BME280;18593;51.426;7.030;2023-06-04T12:22:45;101037.75;;;21.53;27.59
32081;BME280;18593;51.426;7.030;2023-06-04T12:25:24;101042.38;;;21.52;27.15
32081;BME280;18593;51.426;7.030;2023-06-04T12:27:53;101033.16;;;21.53;28.65
32081;BME280;18593;51.426;7.030;2023-06-04T12:30:22;101032.06;;;21.59;28.13
32081;BME280;18593;51.426;7.030;2023-06-04T12:32:49;101032.34;;;21.63;27.83
32081;BME280;18593;51.426;7.030;2023-06-04T12:35:17;101034.50;;;21.61;27.25
32081;BME280;18593;51.426;7.030;2023-06-04T12:37:44;101032.88;;;21.60;26.99
32081;BME280;18593;51.426;7.030;2023-06-04T12:40:12;101026.63;;;21.59;27.70
32081;BME280;18593;51.426;7.030;2023-06-04T12:42:39;101032.06;;;21.65;26.78
32081;BME280;18593;51.426;7.030;2023-06-04T12:45:08;101030.97;;;21.66;26.16
32081;BME280;18593;51.426;7.030;2023-06-04T12:47:37;101034.78;;;21.65;25.74
32081;BME280;18593;51.426;7.030;2023-06-04T12:50:06;101025.81;;;21.64;26.33
32081;BME280;18593;51.426;7.030;2023-06-04T12:52:33;101023.09;;;21.64;25.71
32081;BME280;18593;51.426;7.030;2023-06-04T12:55:00;101029.34;;;21.65;26.33
32081;BME280;18593;51.426;7.030;2023-06-04T12:57:27;101027.16;;;21.67;26.15
32081;BME280;18593;51.426;7.030;2023-06-04T12:59:54;101034.50;;;21.66;25.19